sensor_id;sensor_type;location;lat;lon;timestamp;temperature;humidity
11840;DHT22;5979;50.800;4.904;2022-07-29T00:02:02;19.00;99.90
11840;DHT22;5979;50.800;4.904;2022-07-29T00:04:28;19.00;99.90
11840;DHT22;5979;50.800;4.904;2022-07-29T00:06:53;19.00;99.90
11840;DHT22;5979;50.800;4.904;2022-07-29T00:09:19;19.00;99.90
11840;DHT22;5979;50.800;4.904;2022-07-29T00:11:45;19.00;99.90
11840;DHT22;5979;50.800;4.904;2022-07-29T00:14:10;19.00;99.90
11840;DHT22;5979;50.800;4.904;2022-07-29T00:16:36;19.00;99.90
11840;DHT22;5979;50.800;4.904;2022-07-29T00:19:02;19.00;99.90
11840;DHT22;5979;50.800;4.904;2022-07-29T00:21:28;19.00;99.90
11840;DHT22;5979;50.800;4.904;2022-07-29T00:23:54;19.00;99.90
11840;DHT22;5979;50.800;4.904;2022-07-29T00:26:19;19.10;99.90
11840;DHT22;5979;50.800;4.904;2022-07-29T00:28:45;19.10;99.90
11840;DHT22;5979;50.800;4.904;2022-07-29T00:31:10;19.10;99.90
11840;DHT22;5979;50.800;4.904;2022-07-29T00:33:36;19.00;99.90
11840;DHT22;5979;50.800;4.904;2022-07-29T00:36:02;19.00;99.90
11840;DHT22;5979;50.800;4.904;2022-07-29T00:38:28;19.00;99.90
11840;DHT22;5979;50.800;4.904;2022-07-29T00:40:53;19.00;99.90
11840;DHT22;5979;50.800;4.904;2022-07-29T00:43:22;19.00;99.90
11840;DHT22;5979;50.800;4.904;2022-07-29T00:45:48;19.00;99.90
11840;DHT22;5979;50.800;4.904;2022-07-29T00:48:14;19.00;99.90
11840;DHT22;5979;50.800;4.904;2022-07-29T00:50:39;19.00;99.90
11840;DHT22;5979;50.800;4.904;2022-07-29T00:53:08;19.00;99.90
11840;DHT22;5979;50.800;4.904;2022-07-29T00:55:34;19.00;99.90
11840;DHT22;5979;50.800;4.904;2022-07-29T00:58:00;19.00;99.90
11840;DHT22;5979;50.800;4.904;2022-07-29T01:00:28;19.00;99.90
11840;DHT22;5979;50.800;4.904;2022-07-29T01:02:54;19.00;99.90
11840;DHT22;5979;50.800;4.904;2022-07-29T01:05:21;19.00;99.90
11840;DHT22;5979;50.800;4.904;2022-07-29T01:07:51;19.00;99.90
11840;DHT22;5979;50.800;4.904;2022-07-29T01:10:18;19.00;99.90
11840;DHT22;5979;50.800;4.904;2022-07-29T01:12:47;19.00;99.90
11840;DHT22;5979;50.800;4.904;2022-07-29T01:15:13;19.00;99.90
11840;DHT22;5979;50.800;4.904;2022-07-29T01:17:56;18.90;99.90
11840;DHT22;5979;50.800;4.904;2022-07-29T01:20:31;18.90;99.90
11840;DHT22;5979;50.800;4.904;2022-07-29T01:23:21;19.00;99.90
11840;DHT22;5979;50.800;4.904;2022-07-29T01:31:10;19.00;99.90
11840;DHT22;5979;50.800;4.904;2022-07-29T01:33:41;19.00;99.90
11840;DHT22;5979;50.800;4.904;2022-07-29T01:36:21;19.00;99.90
11840;DHT22;5979;50.800;4.904;2022-07-29T01:38:57;19.00;99.90
11840;DHT22;5979;50.800;4.904;2022-07-29T01:41:26;19.00;99.90
11840;DHT22;5979;50.800;4.904;2022-07-29T01:43:57;19.00;99.90
11840;DHT22;5979;50.800;4.904;2022-07-29T01:46:29;18.90;99.90
11840;DHT22;5979;50.800;4.904;2022-07-29T01:49:17;18.90;99.90
11840;DHT22;5979;50.800;4.904;2022-07-29T01:51:49;18.90;99.90
11840;DHT22;5979;50.800;4.904;2022-07-29T01:54:40;18.70;99.90
11840;DHT22;5979;50.800;4.904;2022-07-29T01:57:14;18.60;99.90
11840;DHT22;5979;50.800;4.904;2022-07-29T01:59:41;18.60;99.90
11840;DHT22;5979;50.800;4.904;2022-07-29T02:02:10;18.60;99.90
11840;DHT22;5979;50.800;4.904;2022-07-29T02:04:37;18.50;99.90
11840;DHT22;5979;50.800;4.904;2022-07-29T02:07:11;18.50;99.90
11840;DHT22;5979;50.800;4.904;2022-07-29T02:09:39;18.60;99.90
11840;DHT22;5979;50.800;4.904;2022-07-29T02:12:07;18.50;99.90
11840;DHT22;5979;50.800;4.904;2022-07-29T02:14:37;18.50;99.90
11840;DHT22;5979;50.800;4.904;2022-07-29T02:17:04;18.50;99.90
11840;DHT22;5979;50.800;4.904;2022-07-29T02:19:32;18.40;99.90
11840;DHT22;5979;50.800;4.904;2022-07-29T02:21:59;18.40;99.90
11840;DHT22;5979;50.800;4.904;2022-07-29T02:24:26;18.40;99.90
11840;DHT22;5979;50.800;4.904;2022-07-29T02:26:55;18.30;99.90
11840;DHT22;5979;50.800;4.904;2022-07-29T02:29:26;18.40;99.90
11840;DHT22;5979;50.800;4.904;2022-07-29T02:31:53;18.40;99.90
11840;DHT22;5979;50.800;4.904;2022-07-29T02:34:20;18.40;99.90
11840;DHT22;5979;50.800;4.904;2022-07-29T02:36:48;18.40;99.90
11840;DHT22;5979;50.800;4.904;2022-07-29T02:39:15;18.40;99.90
11840;DHT22;5979;50.800;4.904;2022-07-29T02:44:20;18.30;99.90
11840;DHT22;5979;50.800;4.904;2022-07-29T02:52:02;18.10;99.90
11840;DHT22;5979;50.800;4.904;2022-07-29T02:57:36;18.10;99.90
11840;DHT22;5979;50.800;4.904;2022-07-29T03:00:08;18.00;99.90
11840;DHT22;5979;50.800;4.904;2022-07-29T03:02:40;18.00;99.90
11840;DHT22;5979;50.800;4.904;2022-07-29T03:05:11;18.00;99.90
11840;DHT22;5979;50.800;4.904;2022-07-29T03:07:39;18.00;99.90
11840;DHT22;5979;50.800;4.904;2022-07-29T03:10:07;18.00;99.90
11840;DHT22;5979;50.800;4.904;2022-07-29T03:12:34;18.00;99.90
11840;DHT22;5979;50.800;4.904;2022-07-29T03:15:01;18.00;99.90
11840;DHT22;5979;50.800;4.904;2022-07-29T03:17:27;17.90;99.90
11840;DHT22;5979;50.800;4.904;2022-07-29T03:19:53;17.90;99.90
11840;DHT22;5979;50.800;4.904;2022-07-29T03:22:20;17.90;99.90
11840;DHT22;5979;50.800;4.904;2022-07-29T03:24:45;17.90;99.90
11840;DHT22;5979;50.800;4.904;2022-07-29T03:27:11;17.80;99.90
11840;DHT22;5979;50.800;4.904;2022-07-29T03:29:37;17.80;99.90
11840;DHT22;5979;50.800;4.904;2022-07-29T03:32:04;17.70;99.90
11840;DHT22;5979;50.800;4.904;2022-07-29T03:34:30;17.60;99.90
11840;DHT22;5979;50.800;4.904;2022-07-29T03:36:56;17.60;99.90
11840;DHT22;5979;50.800;4.904;2022-07-29T03:39:25;17.50;99.90
11840;DHT22;5979;50.800;4.904;2022-07-29T03:41:55;17.50;99.90
11840;DHT22;5979;50.800;4.904;2022-07-29T03:44:21;17.30;99.90
11840;DHT22;5979;50.800;4.904;2022-07-29T03:46:50;17.20;99.90
11840;DHT22;5979;50.800;4.904;2022-07-29T03:49:16;17.10;99.90
11840;DHT22;5979;50.800;4.904;2022-07-29T03:51:44;17.10;99.90
11840;DHT22;5979;50.800;4.904;2022-07-29T03:54:10;17.00;99.90
11840;DHT22;5979;50.800;4.904;2022-07-29T03:56:40;17.00;99.90
11840;DHT22;5979;50.800;4.904;2022-07-29T03:59:07;17.00;99.90
11840;DHT22;5979;50.800;4.904;2022-07-29T04:01:34;17.00;99.90
11840;DHT22;5979;50.800;4.904;2022-07-29T04:04:03;17.00;99.90
11840;DHT22;5979;50.800;4.904;2022-07-29T04:06:38;16.90;99.90
11840;DHT22;5979;50.800;4.904;2022-07-29T04:09:03;16.90;99.90
11840;DHT22;5979;50.800;4.904;2022-07-29T04:11:29;16.90;99.90
11840;DHT22;5979;50.800;4.904;2022-07-29T04:13:55;16.90;99.90
11840;DHT22;5979;50.800;4.904;2022-07-29T04:16:20;16.90;99.90
11840;DHT22;5979;50.800;4.904;2022-07-29T04:18:46;16.80;99.90
11840;DHT22;5979;50.800;4.904;2022-07-29T04:21:12;16.80;99.90
11840;DHT22;5979;50.800;4.904;2022-07-29T04:23:37;16.90;99.90
11840;DHT22;5979;50.800;4.904;2022-07-29T04:26:03;16.90;99.90
11840;DHT22;5979;50.800;4.904;2022-07-29T04:28:28;16.80;99.90
11840;DHT22;5979;50.800;4.904;2022-07-29T04:30:54;16.80;99.90
11840;DHT22;5979;50.800;4.904;2022-07-29T04:33:20;16.80;99.90
11840;DHT22;5979;50.800;4.904;2022-07-29T04:35:45;16.80;99.90
11840;DHT22;5979;50.800;4.904;2022-07-29T04:38:11;16.90;99.90
11840;DHT22;5979;50.800;4.904;2022-07-29T04:40:37;16.80;99.90
11840;DHT22;5979;50.800;4.904;2022-07-29T04:43:02;16.80;99.90
11840;DHT22;5979;50.800;4.904;2022-07-29T04:45:28;16.80;99.90
11840;DHT22;5979;50.800;4.904;2022-07-29T04:47:54;16.80;99.90
11840;DHT22;5979;50.800;4.904;2022-07-29T04:50:21;16.80;99.90
11840;DHT22;5979;50.800;4.904;2022-07-29T04:52:47;16.80;99.90
11840;DHT22;5979;50.800;4.904;2022-07-29T04:55:12;16.80;99.90
11840;DHT22;5979;50.800;4.904;2022-07-29T04:57:38;16.90;99.90
11840;DHT22;5979;50.800;4.904;2022-07-29T05:00:05;16.90;99.90
11840;DHT22;5979;50.800;4.904;2022-07-29T05:02:31;17.00;99.90
11840;DHT22;5979;50.800;4.904;2022-07-29T05:04:56;17.40;99.90
11840;DHT22;5979;50.800;4.904;2022-07-29T05:07:22;18.00;99.90
11840;DHT22;5979;50.800;4.904;2022-07-29T05:09:48;18.60;99.90
11840;DHT22;5979;50.800;4.904;2022-07-29T05:12:13;19.20;99.90
11840;DHT22;5979;50.800;4.904;2022-07-29T05:14:39;19.80;99.90
11840;DHT22;5979;50.800;4.904;2022-07-29T05:17:05;20.20;99.90
11840;DHT22;5979;50.800;4.904;2022-07-29T05:19:30;20.40;99.90
11840;DHT22;5979;50.800;4.904;2022-07-29T05:21:57;20.80;99.90
11840;DHT22;5979;50.800;4.904;2022-07-29T05:24:22;21.10;99.90
11840;DHT22;5979;50.800;4.904;2022-07-29T05:26:48;21.30;99.90
11840;DHT22;5979;50.800;4.904;2022-07-29T05:29:13;21.60;99.90
11840;DHT22;5979;50.800;4.904;2022-07-29T05:31:39;21.80;99.90
11840;DHT22;5979;50.800;4.904;2022-07-29T05:34:05;22.00;99.90
11840;DHT22;5979;50.800;4.904;2022-07-29T05:36:31;22.10;99.90
11840;DHT22;5979;50.800;4.904;2022-07-29T05:38:56;22.20;99.90
11840;DHT22;5979;50.800;4.904;2022-07-29T05:41:22;22.30;99.90
11840;DHT22;5979;50.800;4.904;2022-07-29T05:43:48;22.50;99.90
11840;DHT22;5979;50.800;4.904;2022-07-29T05:46:14;22.80;99.90
11840;DHT22;5979;50.800;4.904;2022-07-29T05:48:39;22.80;99.90
11840;DHT22;5979;50.800;4.904;2022-07-29T05:51:05;23.10;99.90
11840;DHT22;5979;50.800;4.904;2022-07-29T05:53:31;23.30;99.90
11840;DHT22;5979;50.800;4.904;2022-07-29T05:55:57;23.10;99.90
11840;DHT22;5979;50.800;4.904;2022-07-29T05:58:22;23.10;99.90
11840;DHT22;5979;50.800;4.904;2022-07-29T06:00:48;23.10;99.90
11840;DHT22;5979;50.800;4.904;2022-07-29T06:03:14;23.00;99.90
11840;DHT22;5979;50.800;4.904;2022-07-29T06:05:39;23.00;99.90
11840;DHT22;5979;50.800;4.904;2022-07-29T06:08:05;22.90;99.90
11840;DHT22;5979;50.800;4.904;2022-07-29T06:10:32;22.80;99.90
11840;DHT22;5979;50.800;4.904;2022-07-29T06:12:58;22.80;99.90
11840;DHT22;5979;50.800;4.904;2022-07-29T06:15:23;23.00;99.90
11840;DHT22;5979;50.800;4.904;2022-07-29T06:17:49;23.00;99.90
11840;DHT22;5979;50.800;4.904;2022-07-29T06:20:15;23.00;99.90
11840;DHT22;5979;50.800;4.904;2022-07-29T06:22:40;22.90;99.90
11840;DHT22;5979;50.800;4.904;2022-07-29T06:25:06;22.80;99.90
11840;DHT22;5979;50.800;4.904;2022-07-29T06:27:32;22.80;99.90
11840;DHT22;5979;50.800;4.904;2022-07-29T06:29:57;22.90;99.90
11840;DHT22;5979;50.800;4.904;2022-07-29T06:32:23;23.00;99.90
11840;DHT22;5979;50.800;4.904;2022-07-29T06:34:49;23.00;99.90
11840;DHT22;5979;50.800;4.904;2022-07-29T06:37:14;23.10;99.90
11840;DHT22;5979;50.800;4.904;2022-07-29T06:39:40;23.10;99.90
11840;DHT22;5979;50.800;4.904;2022-07-29T06:42:06;23.20;99.90
11840;DHT22;5979;50.800;4.904;2022-07-29T06:44:32;23.30;99.90
11840;DHT22;5979;50.800;4.904;2022-07-29T06:47:01;23.30;99.90
11840;DHT22;5979;50.800;4.904;2022-07-29T06:49:27;23.40;99.90
11840;DHT22;5979;50.800;4.904;2022-07-29T06:51:54;23.40;99.90
11840;DHT22;5979;50.800;4.904;2022-07-29T06:54:20;23.50;99.90
11840;DHT22;5979;50.800;4.904;2022-07-29T06:56:45;23.60;99.90
11840;DHT22;5979;50.800;4.904;2022-07-29T06:59:12;23.40;99.90
11840;DHT22;5979;50.800;4.904;2022-07-29T07:01:39;23.20;99.90
11840;DHT22;5979;50.800;4.904;2022-07-29T07:04:06;23.40;99.90
11840;DHT22;5979;50.800;4.904;2022-07-29T07:06:34;23.40;99.90
11840;DHT22;5979;50.800;4.904;2022-07-29T07:09:00;23.10;99.90
11840;DHT22;5979;50.800;4.904;2022-07-29T07:11:25;23.10;99.90
11840;DHT22;5979;50.800;4.904;2022-07-29T07:13:51;22.90;99.90
11840;DHT22;5979;50.800;4.904;2022-07-29T07:16:17;22.80;99.90
11840;DHT22;5979;50.800;4.904;2022-07-29T07:18:42;22.70;99.90
11840;DHT22;5979;50.800;4.904;2022-07-29T07:21:10;22.80;99.90
11840;DHT22;5979;50.800;4.904;2022-07-29T07:23:36;22.70;99.90
11840;DHT22;5979;50.800;4.904;2022-07-29T07:26:01;22.70;99.90
11840;DHT22;5979;50.800;4.904;2022-07-29T07:28:28;22.70;99.90
11840;DHT22;5979;50.800;4.904;2022-07-29T07:30:54;22.80;99.90
11840;DHT22;5979;50.800;4.904;2022-07-29T07:33:19;22.70;99.90
11840;DHT22;5979;50.800;4.904;2022-07-29T07:35:45;22.80;99.90
11840;DHT22;5979;50.800;4.904;2022-07-29T07:38:11;22.80;99.90
11840;DHT22;5979;50.800;4.904;2022-07-29T07:40:37;23.00;99.90
11840;DHT22;5979;50.800;4.904;2022-07-29T07:43:02;23.00;99.90
11840;DHT22;5979;50.800;4.904;2022-07-29T07:45:28;23.00;99.90
11840;DHT22;5979;50.800;4.904;2022-07-29T07:47:54;23.10;99.90
11840;DHT22;5979;50.800;4.904;2022-07-29T07:50:20;23.30;99.90
11840;DHT22;5979;50.800;4.904;2022-07-29T07:52:47;23.50;99.90
11840;DHT22;5979;50.800;4.904;2022-07-29T07:55:13;23.70;99.90
11840;DHT22;5979;50.800;4.904;2022-07-29T07:57:39;23.70;99.90
11840;DHT22;5979;50.800;4.904;2022-07-29T08:00:05;23.80;99.90
11840;DHT22;5979;50.800;4.904;2022-07-29T08:02:31;23.90;99.90
11840;DHT22;5979;50.800;4.904;2022-07-29T08:04:57;23.90;99.90
11840;DHT22;5979;50.800;4.904;2022-07-29T08:07:23;24.00;99.90
11840;DHT22;5979;50.800;4.904;2022-07-29T08:09:48;24.10;99.90
11840;DHT22;5979;50.800;4.904;2022-07-29T08:12:14;24.20;99.90
11840;DHT22;5979;50.800;4.904;2022-07-29T08:14:40;24.10;99.90
11840;DHT22;5979;50.800;4.904;2022-07-29T08:17:05;24.00;99.90
11840;DHT22;5979;50.800;4.904;2022-07-29T08:19:31;24.20;99.90
11840;DHT22;5979;50.800;4.904;2022-07-29T08:21:56;24.40;99.90
11840;DHT22;5979;50.800;4.904;2022-07-29T08:24:22;24.50;99.90
11840;DHT22;5979;50.800;4.904;2022-07-29T08:27:07;24.30;99.90
11840;DHT22;5979;50.800;4.904;2022-07-29T08:29:32;24.50;99.90
11840;DHT22;5979;50.800;4.904;2022-07-29T08:31:58;24.60;99.90
11840;DHT22;5979;50.800;4.904;2022-07-29T08:34:23;24.70;99.90
11840;DHT22;5979;50.800;4.904;2022-07-29T08:36:49;24.80;99.90
11840;DHT22;5979;50.800;4.904;2022-07-29T08:39:15;24.80;99.90
11840;DHT22;5979;50.800;4.904;2022-07-29T08:41:41;25.00;99.90
11840;DHT22;5979;50.800;4.904;2022-07-29T08:44:07;25.00;99.90
11840;DHT22;5979;50.800;4.904;2022-07-29T08:46:37;25.10;99.90
11840;DHT22;5979;50.800;4.904;2022-07-29T08:49:04;25.20;99.90
11840;DHT22;5979;50.800;4.904;2022-07-29T08:51:30;25.30;99.90
11840;DHT22;5979;50.800;4.904;2022-07-29T08:53:57;25.30;99.90
11840;DHT22;5979;50.800;4.904;2022-07-29T08:56:24;25.40;99.90
11840;DHT22;5979;50.800;4.904;2022-07-29T08:58:49;25.40;99.90
11840;DHT22;5979;50.800;4.904;2022-07-29T09:01:17;25.30;99.90
11840;DHT22;5979;50.800;4.904;2022-07-29T09:03:46;25.40;99.90
11840;DHT22;5979;50.800;4.904;2022-07-29T09:06:17;25.50;99.90
11840;DHT22;5979;50.800;4.904;2022-07-29T09:08:44;25.50;99.90
11840;DHT22;5979;50.800;4.904;2022-07-29T09:11:09;25.60;99.90
11840;DHT22;5979;50.800;4.904;2022-07-29T09:13:36;25.80;99.90
11840;DHT22;5979;50.800;4.904;2022-07-29T09:16:03;25.80;99.90
11840;DHT22;5979;50.800;4.904;2022-07-29T09:18:39;25.70;99.90
11840;DHT22;5979;50.800;4.904;2022-07-29T09:21:10;25.70;99.90
11840;DHT22;5979;50.800;4.904;2022-07-29T09:24:02;25.70;99.90
11840;DHT22;5979;50.800;4.904;2022-07-29T09:26:33;25.70;99.90
11840;DHT22;5979;50.800;4.904;2022-07-29T09:28:59;25.80;99.90
11840;DHT22;5979;50.800;4.904;2022-07-29T09:31:37;25.80;99.90
11840;DHT22;5979;50.800;4.904;2022-07-29T09:34:04;25.60;99.90
11840;DHT22;5979;50.800;4.904;2022-07-29T09:36:30;25.50;99.90
11840;DHT22;5979;50.800;4.904;2022-07-29T09:39:02;25.60;99.90
11840;DHT22;5979;50.800;4.904;2022-07-29T09:41:29;25.50;99.90
11840;DHT22;5979;50.800;4.904;2022-07-29T09:43:59;25.60;99.90
11840;DHT22;5979;50.800;4.904;2022-07-29T09:46:25;25.80;99.90
11840;DHT22;5979;50.800;4.904;2022-07-29T09:49:12;25.90;99.90
11840;DHT22;5979;50.800;4.904;2022-07-29T09:51:38;25.90;99.90
11840;DHT22;5979;50.800;4.904;2022-07-29T09:54:22;25.90;99.90
11840;DHT22;5979;50.800;4.904;2022-07-29T09:56:48;25.80;99.90
11840;DHT22;5979;50.800;4.904;2022-07-29T09:59:14;25.90;99.90
11840;DHT22;5979;50.800;4.904;2022-07-29T10:01:40;26.00;99.90
11840;DHT22;5979;50.800;4.904;2022-07-29T10:04:06;26.30;99.90
11840;DHT22;5979;50.800;4.904;2022-07-29T10:06:31;26.40;99.90
11840;DHT22;5979;50.800;4.904;2022-07-29T10:09:10;26.40;99.90
11840;DHT22;5979;50.800;4.904;2022-07-29T10:11:36;26.20;99.90
11840;DHT22;5979;50.800;4.904;2022-07-29T10:14:03;26.20;99.90
11840;DHT22;5979;50.800;4.904;2022-07-29T10:16:29;26.00;99.90
11840;DHT22;5979;50.800;4.904;2022-07-29T10:18:59;26.00;99.90
11840;DHT22;5979;50.800;4.904;2022-07-29T10:21:27;26.20;99.90
11840;DHT22;5979;50.800;4.904;2022-07-29T10:23:55;26.20;99.90
11840;DHT22;5979;50.800;4.904;2022-07-29T10:26:23;26.30;99.90
11840;DHT22;5979;50.800;4.904;2022-07-29T10:28:48;26.40;99.90
11840;DHT22;5979;50.800;4.904;2022-07-29T10:31:29;26.60;99.90
11840;DHT22;5979;50.800;4.904;2022-07-29T10:34:17;26.80;99.90
11840;DHT22;5979;50.800;4.904;2022-07-29T10:37:07;26.70;99.90
11840;DHT22;5979;50.800;4.904;2022-07-29T10:42:24;26.40;99.90
11840;DHT22;5979;50.800;4.904;2022-07-29T10:44:52;26.50;99.90
11840;DHT22;5979;50.800;4.904;2022-07-29T10:47:26;26.40;99.90
11840;DHT22;5979;50.800;4.904;2022-07-29T10:50:00;26.50;99.90
11840;DHT22;5979;50.800;4.904;2022-07-29T10:52:52;26.80;99.90
11840;DHT22;5979;50.800;4.904;2022-07-29T10:55:36;26.90;99.90
11840;DHT22;5979;50.800;4.904;2022-07-29T10:58:16;26.90;99.90
11840;DHT22;5979;50.800;4.904;2022-07-29T11:00:42;27.00;99.90
11840;DHT22;5979;50.800;4.904;2022-07-29T11:03:07;27.00;99.90
11840;DHT22;5979;50.800;4.904;2022-07-29T11:05:53;27.10;99.90
11840;DHT22;5979;50.800;4.904;2022-07-29T11:08:21;26.90;99.90
11840;DHT22;5979;50.800;4.904;2022-07-29T11:10:52;26.90;99.90
11840;DHT22;5979;50.800;4.904;2022-07-29T11:16:06;27.00;99.90
11840;DHT22;5979;50.800;4.904;2022-07-29T11:18:32;27.20;99.90
11840;DHT22;5979;50.800;4.904;2022-07-29T11:20:57;27.00;99.90
11840;DHT22;5979;50.800;4.904;2022-07-29T11:23:33;27.00;99.90
11840;DHT22;5979;50.800;4.904;2022-07-29T11:26:20;27.00;99.90
11840;DHT22;5979;50.800;4.904;2022-07-29T11:31:20;27.30;99.90
11840;DHT22;5979;50.800;4.904;2022-07-29T11:33:57;27.50;99.90
11840;DHT22;5979;50.800;4.904;2022-07-29T11:36:23;27.80;99.90
11840;DHT22;5979;50.800;4.904;2022-07-29T11:38:48;28.00;99.90
11840;DHT22;5979;50.800;4.904;2022-07-29T11:46:12;28.10;99.90
11840;DHT22;5979;50.800;4.904;2022-07-29T11:48:42;28.10;99.90
11840;DHT22;5979;50.800;4.904;2022-07-29T11:51:11;27.90;99.90
11840;DHT22;5979;50.800;4.904;2022-07-29T11:53:38;27.70;99.90
11840;DHT22;5979;50.800;4.904;2022-07-29T11:56:08;27.30;99.90
11840;DHT22;5979;50.800;4.904;2022-07-29T11:58:34;27.10;99.90
11840;DHT22;5979;50.800;4.904;2022-07-29T12:01:01;27.00;99.90
11840;DHT22;5979;50.800;4.904;2022-07-29T12:03:28;27.10;99.90
11840;DHT22;5979;50.800;4.904;2022-07-29T12:05:54;27.20;99.90
11840;DHT22;5979;50.800;4.904;2022-07-29T12:08:22;27.40;99.90
11840;DHT22;5979;50.800;4.904;2022-07-29T12:10:49;27.60;99.90
11840;DHT22;5979;50.800;4.904;2022-07-29T12:13:17;27.80;99.90
11840;DHT22;5979;50.800;4.904;2022-07-29T12:15:52;27.70;99.90
11840;DHT22;5979;50.800;4.904;2022-07-29T12:18:19;27.60;99.90
11840;DHT22;5979;50.800;4.904;2022-07-29T12:20:46;27.60;99.90
11840;DHT22;5979;50.800;4.904;2022-07-29T12:23:12;27.70;99.90
11840;DHT22;5979;50.800;4.904;2022-07-29T12:25:40;27.60;99.90
11840;DHT22;5979;50.800;4.904;2022-07-29T12:28:08;27.40;99.90
11840;DHT22;5979;50.800;4.904;2022-07-29T12:30:48;27.50;99.90
11840;DHT22;5979;50.800;4.904;2022-07-29T12:33:22;27.80;99.90
11840;DHT22;5979;50.800;4.904;2022-07-29T12:35:51;27.80;99.90
11840;DHT22;5979;50.800;4.904;2022-07-29T12:38:19;28.00;99.90
11840;DHT22;5979;50.800;4.904;2022-07-29T12:40:46;27.90;99.90
11840;DHT22;5979;50.800;4.904;2022-07-29T12:43:17;27.60;99.90
11840;DHT22;5979;50.800;4.904;2022-07-29T12:45:45;27.30;99.90
11840;DHT22;5979;50.800;4.904;2022-07-29T12:48:12;27.00;99.90
11840;DHT22;5979;50.800;4.904;2022-07-29T12:51:01;26.90;99.90
11840;DHT22;5979;50.800;4.904;2022-07-29T12:53:27;26.80;99.90
11840;DHT22;5979;50.800;4.904;2022-07-29T12:55:56;26.80;99.90
11840;DHT22;5979;50.800;4.904;2022-07-29T13:03:47;27.20;99.90
11840;DHT22;5979;50.800;4.904;2022-07-29T13:06:40;27.40;99.90
11840;DHT22;5979;50.800;4.904;2022-07-29T13:09:10;27.50;99.90
11840;DHT22;5979;50.800;4.904;2022-07-29T13:11:44;27.30;99.90
11840;DHT22;5979;50.800;4.904;2022-07-29T13:17:19;27.30;99.90
11840;DHT22;5979;50.800;4.904;2022-07-29T13:20:04;27.50;99.90
11840;DHT22;5979;50.800;4.904;2022-07-29T13:22:30;27.30;99.90
11840;DHT22;5979;50.800;4.904;2022-07-29T13:24:57;27.10;99.90
11840;DHT22;5979;50.800;4.904;2022-07-29T13:27:25;27.20;99.90
11840;DHT22;5979;50.800;4.904;2022-07-29T13:29:52;27.30;99.90
11840;DHT22;5979;50.800;4.904;2022-07-29T13:32:19;27.40;99.90
11840;DHT22;5979;50.800;4.904;2022-07-29T13:34:45;27.30;99.90
11840;DHT22;5979;50.800;4.904;2022-07-29T13:37:11;27.30;99.90
11840;DHT22;5979;50.800;4.904;2022-07-29T13:39:37;27.10;99.90
11840;DHT22;5979;50.800;4.904;2022-07-29T13:42:03;26.90;99.90
11840;DHT22;5979;50.800;4.904;2022-07-29T13:44:29;26.90;99.90
11840;DHT22;5979;50.800;4.904;2022-07-29T13:46:55;26.90;99.90
11840;DHT22;5979;50.800;4.904;2022-07-29T13:49:21;27.10;99.90
11840;DHT22;5979;50.800;4.904;2022-07-29T13:51:48;27.30;99.90
11840;DHT22;5979;50.800;4.904;2022-07-29T13:54:14;27.60;99.90
11840;DHT22;5979;50.800;4.904;2022-07-29T13:56:40;27.70;99.90
11840;DHT22;5979;50.800;4.904;2022-07-29T13:59:06;27.80;99.90
11840;DHT22;5979;50.800;4.904;2022-07-29T14:01:35;27.90;99.90
11840;DHT22;5979;50.800;4.904;2022-07-29T14:04:02;27.90;99.90
11840;DHT22;5979;50.800;4.904;2022-07-29T14:06:28;27.90;99.90
11840;DHT22;5979;50.800;4.904;2022-07-29T14:08:53;27.90;99.90
11840;DHT22;5979;50.800;4.904;2022-07-29T14:11:19;27.90;99.90
11840;DHT22;5979;50.800;4.904;2022-07-29T14:13:45;28.00;99.90
11840;DHT22;5979;50.800;4.904;2022-07-29T14:16:10;27.90;99.90
11840;DHT22;5979;50.800;4.904;2022-07-29T14:18:36;27.70;99.90
11840;DHT22;5979;50.800;4.904;2022-07-29T14:21:02;27.60;99.90
11840;DHT22;5979;50.800;4.904;2022-07-29T14:23:28;27.50;99.90
11840;DHT22;5979;50.800;4.904;2022-07-29T14:25:54;27.30;99.90
11840;DHT22;5979;50.800;4.904;2022-07-29T14:28:19;27.10;99.90
11840;DHT22;5979;50.800;4.904;2022-07-29T14:30:45;27.00;99.90
11840;DHT22;5979;50.800;4.904;2022-07-29T14:33:11;27.00;99.90
11840;DHT22;5979;50.800;4.904;2022-07-29T14:35:37;26.90;99.90
11840;DHT22;5979;50.800;4.904;2022-07-29T14:38:03;26.90;99.90
11840;DHT22;5979;50.800;4.904;2022-07-29T14:40:29;27.00;99.90
11840;DHT22;5979;50.800;4.904;2022-07-29T14:42:54;27.00;99.90
11840;DHT22;5979;50.800;4.904;2022-07-29T14:45:20;27.00;99.90
11840;DHT22;5979;50.800;4.904;2022-07-29T14:47:46;27.00;99.90
11840;DHT22;5979;50.800;4.904;2022-07-29T14:50:11;27.00;99.90
11840;DHT22;5979;50.800;4.904;2022-07-29T14:52:38;27.00;99.90
11840;DHT22;5979;50.800;4.904;2022-07-29T14:55:04;27.00;99.90
11840;DHT22;5979;50.800;4.904;2022-07-29T14:57:30;27.00;99.90
11840;DHT22;5979;50.800;4.904;2022-07-29T14:59:56;27.00;99.90
11840;DHT22;5979;50.800;4.904;2022-07-29T15:02:21;26.80;99.90
11840;DHT22;5979;50.800;4.904;2022-07-29T15:04:47;26.60;99.90
11840;DHT22;5979;50.800;4.904;2022-07-29T15:07:14;26.50;99.90
11840;DHT22;5979;50.800;4.904;2022-07-29T15:09:40;26.40;99.90
11840;DHT22;5979;50.800;4.904;2022-07-29T15:12:06;26.40;99.90
11840;DHT22;5979;50.800;4.904;2022-07-29T15:14:32;26.40;99.90
11840;DHT22;5979;50.800;4.904;2022-07-29T15:16:57;26.30;99.90
11840;DHT22;5979;50.800;4.904;2022-07-29T15:19:23;26.30;99.90
11840;DHT22;5979;50.800;4.904;2022-07-29T15:21:49;26.30;99.90
11840;DHT22;5979;50.800;4.904;2022-07-29T15:24:16;26.20;99.90
11840;DHT22;5979;50.800;4.904;2022-07-29T15:26:42;26.30;99.90
11840;DHT22;5979;50.800;4.904;2022-07-29T15:29:08;26.30;99.90
11840;DHT22;5979;50.800;4.904;2022-07-29T15:31:34;26.40;99.90
11840;DHT22;5979;50.800;4.904;2022-07-29T15:33:59;26.50;99.90
11840;DHT22;5979;50.800;4.904;2022-07-29T15:36:25;26.70;99.90
11840;DHT22;5979;50.800;4.904;2022-07-29T15:38:54;26.90;99.90
11840;DHT22;5979;50.800;4.904;2022-07-29T15:41:20;27.10;99.90
11840;DHT22;5979;50.800;4.904;2022-07-29T15:43:46;27.20;99.90
11840;DHT22;5979;50.800;4.904;2022-07-29T15:46:17;27.30;99.90
11840;DHT22;5979;50.800;4.904;2022-07-29T15:49:01;27.20;99.90
11840;DHT22;5979;50.800;4.904;2022-07-29T15:51:27;27.20;99.90
11840;DHT22;5979;50.800;4.904;2022-07-29T15:53:53;27.20;99.90
11840;DHT22;5979;50.800;4.904;2022-07-29T15:56:19;27.00;99.90
11840;DHT22;5979;50.800;4.904;2022-07-29T15:58:45;26.90;99.90
11840;DHT22;5979;50.800;4.904;2022-07-29T16:01:10;26.70;99.90
11840;DHT22;5979;50.800;4.904;2022-07-29T16:03:36;26.60;99.90
11840;DHT22;5979;50.800;4.904;2022-07-29T16:06:02;26.50;99.60
11840;DHT22;5979;50.800;4.904;2022-07-29T16:08:28;26.50;99.90
11840;DHT22;5979;50.800;4.904;2022-07-29T16:10:54;26.50;99.80
11840;DHT22;5979;50.800;4.904;2022-07-29T16:13:20;26.40;99.90
11840;DHT22;5979;50.800;4.904;2022-07-29T16:15:45;26.50;99.90
11840;DHT22;5979;50.800;4.904;2022-07-29T16:18:11;26.40;99.90
11840;DHT22;5979;50.800;4.904;2022-07-29T16:20:38;26.50;99.90
11840;DHT22;5979;50.800;4.904;2022-07-29T16:23:04;26.40;99.90
11840;DHT22;5979;50.800;4.904;2022-07-29T16:25:30;26.40;99.90
11840;DHT22;5979;50.800;4.904;2022-07-29T16:27:56;26.40;99.90